Time;durP1;ratioP1;P1;durP2;ratioP2;P2;SDS_P1;SDS_P2;PMS_P1;PMS_P2;Temp;Humidity;BMP_temperature;BMP_pressure;BME280_temperature;BME280_humidity;BME280_pressure;Samples;Min_cycle;Max_cycle;Signal;HPM_P1;HPM_P2
2022/08/13 00:02:16;;;;;;;1.15;0.30;;;20.10;72.00;;;;;;6194742;23;19997;-85
2022/08/13 00:05:09;;;;;;;1.10;0.30;;;20.10;72.00;;;;;;6196295;23;20412;-83
2022/08/13 00:07:33;;;;;;;0.80;0.33;;;20.00;72.30;;;;;;6201643;23;20052;-84
2022/08/13 00:09:59;;;;;;;1.13;0.35;;;20.00;72.30;;;;;;6205533;23;20279;-84
2022/08/13 00:15:21;;;;;;;0.40;0.20;;;19.90;72.30;;;;;;6198976;23;20057;-84
2022/08/13 00:17:49;;;;;;;1.60;0.22;;;19.90;72.40;;;;;;6193347;23;20224;-84
2022/08/13 00:20:17;;;;;;;0.45;0.10;;;19.90;72.20;;;;;;6190980;23;20001;-83
2022/08/13 00:22:43;;;;;;;0.88;0.30;;;19.90;72.20;;;;;;6191991;23;20017;-84
2022/08/13 00:25:09;;;;;;;0.98;0.40;;;19.90;72.20;;;;;;6192044;23;20082;-84
2022/08/13 00:27:35;;;;;;;1.33;0.30;;;19.90;72.20;;;;;;6189934;23;20001;-84
2022/08/13 00:30:05;;;;;;;0.60;0.30;;;19.90;72.30;;;;;;6193364;23;20124;-84
2022/08/13 00:32:32;;;;;;;0.60;0.30;;;19.90;72.50;;;;;;6193205;23;20061;-84
2022/08/13 00:34:59;;;;;;;0.45;0.30;;;19.90;72.90;;;;;;6215355;23;20001;-84
2022/08/13 00:37:25;;;;;;;0.60;0.30;;;19.80;72.50;;;;;;6193307;23;20044;-84
2022/08/13 00:39:53;;;;;;;3.25;0.40;;;19.80;72.90;;;;;;6193849;23;19997;-83
2022/08/13 00:42:24;;;;;;;1.00;0.30;;;19.80;73.00;;;;;;6190988;23;20475;-85
2022/08/13 00:44:50;;;;;;;0.80;0.30;;;19.80;73.20;;;;;;6193738;23;19998;-85
2022/08/13 00:50:01;;;;;;;1.05;0.40;;;19.60;73.70;;;;;;6191610;23;20092;-84
2022/08/13 00:52:32;;;;;;;0.60;0.30;;;19.60;73.90;;;;;;6190256;23;20119;-84
2022/08/13 00:55:05;;;;;;;1.10;0.30;;;19.60;74.10;;;;;;6191755;23;20005;-84
2022/08/13 00:57:31;;;;;;;0.70;0.35;;;19.50;74.30;;;;;;6190378;23;19997;-84
2022/08/13 00:59:58;;;;;;;1.23;0.40;;;19.40;74.60;;;;;;6192185;23;20001;-85
2022/08/13 01:02:24;;;;;;;1.25;0.38;;;19.40;74.60;;;;;;6192078;23;20079;-84
2022/08/13 01:04:50;;;;;;;1.50;0.30;;;19.40;74.80;;;;;;6194084;23;20012;-84
2022/08/13 01:07:19;;;;;;;0.52;0.20;;;19.40;75.00;;;;;;6192436;23;20383;-84
2022/08/13 01:09:45;;;;;;;1.23;0.55;;;19.40;75.10;;;;;;6189784;23;20028;-84
2022/08/13 01:12:13;;;;;;;1.08;0.50;;;19.40;75.00;;;;;;6189366;23;20044;-84
2022/08/13 01:14:39;;;;;;;1.40;0.30;;;19.30;75.10;;;;;;6190562;23;20016;-84
2022/08/13 01:17:05;;;;;;;0.43;0.30;;;19.40;75.80;;;;;;6192038;23;20428;-84
2022/08/13 01:19:34;;;;;;;0.65;0.20;;;19.30;75.40;;;;;;6190058;23;20053;-85
2022/08/13 01:22:00;;;;;;;1.17;0.38;;;19.20;75.50;;;;;;6191172;23;20052;-84
2022/08/13 01:24:28;;;;;;;1.02;0.30;;;19.20;75.60;;;;;;6191408;23;20009;-85
2022/08/13 01:26:57;;;;;;;1.02;0.38;;;19.20;75.70;;;;;;6188025;23;20004;-84
2022/08/13 01:29:24;;;;;;;1.27;0.30;;;19.20;75.80;;;;;;6190573;23;20052;-84
2022/08/13 01:31:51;;;;;;;0.73;0.20;;;19.20;76.10;;;;;;6188481;23;20009;-84
2022/08/13 01:34:18;;;;;;;0.70;0.20;;;19.20;76.10;;;;;;6189199;23;20455;-84
2022/08/13 01:36:46;;;;;;;1.85;0.30;;;19.20;76.10;;;;;;6190104;23;20005;-84
2022/08/13 01:39:12;;;;;;;0.95;0.40;;;19.20;76.30;;;;;;6192010;23;20007;-84
2022/08/13 01:41:39;;;;;;;0.85;0.40;;;19.10;76.40;;;;;;6188773;23;20001;-84
2022/08/13 01:44:06;;;;;;;2.97;1.15;;;19.10;76.60;;;;;;6188327;23;20037;-85
2022/08/13 01:52:04;;;;;;;0.95;0.30;;;19.10;77.00;;;;;;6193484;23;20024;-83
2022/08/13 01:54:36;;;;;;;1.67;0.43;;;19.00;77.20;;;;;;6191981;23;20024;-85
2022/08/13 01:57:04;;;;;;;0.55;0.30;;;19.00;77.40;;;;;;6190347;23;20016;-85
2022/08/13 01:59:34;;;;;;;0.40;0.28;;;19.00;77.50;;;;;;6167167;23;20005;-84
2022/08/13 02:02:01;;;;;;;0.73;0.30;;;18.90;77.80;;;;;;6193382;23;20005;-84
2022/08/13 02:04:28;;;;;;;1.15;0.45;;;18.90;77.90;;;;;;6193494;23;19997;-85
2022/08/13 02:06:54;;;;;;;0.60;0.32;;;18.90;77.90;;;;;;6190119;23;20402;-84
2022/08/13 02:09:23;;;;;;;0.70;0.40;;;18.80;78.10;;;;;;6191116;23;20005;-83
2022/08/13 02:11:49;;;;;;;1.10;0.40;;;18.80;78.20;;;;;;6190143;23;20009;-84
2022/08/13 02:14:16;;;;;;;2.13;0.40;;;18.80;78.50;;;;;;6189648;23;20005;-84
2022/08/13 02:16:41;;;;;;;0.73;0.40;;;18.80;79.10;;;;;;6191662;23;20001;-84
2022/08/13 02:19:08;;;;;;;0.63;0.30;;;18.80;78.60;;;;;;6192378;23;20002;-84
2022/08/13 02:21:38;;;;;;;0.75;0.30;;;18.80;78.50;;;;;;6190520;23;20376;-84
2022/08/13 02:24:13;;;;;;;0.77;0.30;;;18.80;78.60;;;;;;6190264;23;20024;-83
2022/08/13 02:26:40;;;;;;;1.00;0.65;;;18.80;78.50;;;;;;6214990;23;20349;-84
2022/08/13 02:29:09;;;;;;;0.55;0.30;;;18.80;78.60;;;;;;6191600;23;20005;-84
2022/08/13 02:31:35;;;;;;;0.82;0.35;;;18.80;78.70;;;;;;6192025;23;20005;-84
2022/08/13 02:34:01;;;;;;;0.60;0.30;;;18.80;78.80;;;;;;6192813;23;20005;-84
2022/08/13 02:36:28;;;;;;;0.77;0.32;;;18.80;78.90;;;;;;6215602;23;20059;-85
2022/08/13 02:38:58;;;;;;;0.60;0.30;;;18.80;79.00;;;;;;6191595;23;20013;-84
2022/08/13 02:41:42;;;;;;;0.40;0.30;;;18.80;79.10;;;;;;6194225;23;19997;-84
2022/08/13 02:44:14;;;;;;;1.10;0.30;;;18.80;79.20;;;;;;6194115;23;20072;-84
2022/08/13 02:46:44;;;;;;;1.45;0.43;;;18.70;79.30;;;;;;6192750;23;20029;-84
2022/08/13 02:49:10;;;;;;;0.75;0.30;;;18.70;79.60;;;;;;6190677;23;20411;-84
2022/08/13 02:51:38;;;;;;;1.25;0.45;;;18.70;79.50;;;;;;6193572;23;20126;-84
2022/08/13 02:54:05;;;;;;;0.75;0.35;;;18.70;80.20;;;;;;6191336;23;20452;-84
2022/08/13 02:56:31;;;;;;;1.35;0.40;;;18.60;79.90;;;;;;6192329;23;20005;-84
2022/08/13 02:58:57;;;;;;;1.33;0.30;;;18.60;79.90;;;;;;6191996;23;20007;-85
2022/08/13 03:01:24;;;;;;;1.13;0.40;;;18.60;80.10;;;;;;6193034;23;20076;-84
2022/08/13 03:03:51;;;;;;;0.82;0.30;;;18.50;80.10;;;;;;6193579;23;19997;-84
2022/08/13 03:06:19;;;;;;;1.33;0.55;;;18.50;80.20;;;;;;6189265;23;20020;-84
2022/08/13 03:08:51;;;;;;;1.08;0.35;;;18.60;80.30;;;;;;6192629;23;20011;-84
2022/08/13 03:11:18;;;;;;;1.13;0.40;;;18.50;80.30;;;;;;6192904;23;20016;-84
2022/08/13 03:14:12;;;;;;;1.38;0.47;;;18.50;80.40;;;;;;6166034;23;20074;-84
2022/08/13 03:16:39;;;;;;;0.52;0.30;;;18.50;80.40;;;;;;6192923;23;20028;-84
2022/08/13 03:19:06;;;;;;;0.85;0.35;;;18.50;81.00;;;;;;6195464;23;20096;-84
2022/08/13 03:21:41;;;;;;;0.47;0.20;;;18.50;80.60;;;;;;6193213;23;20020;-84
2022/08/13 03:24:10;;;;;;;0.38;0.20;;;18.50;80.70;;;;;;6195858;23;20005;-85
2022/08/13 03:26:35;;;;;;;1.42;0.40;;;18.40;80.90;;;;;;6194787;23;20452;-84
2022/08/13 03:29:03;;;;;;;1.10;0.40;;;18.40;80.90;;;;;;6194626;23;20001;-84
2022/08/13 03:31:28;;;;;;;0.55;0.30;;;18.40;80.90;;;;;;6195624;23;20001;-84
2022/08/13 03:33:58;;;;;;;0.55;0.30;;;18.40;80.90;;;;;;6197362;23;20016;-84
2022/08/13 03:36:26;;;;;;;1.15;0.50;;;18.40;81.10;;;;;;6198326;23;20009;-83
2022/08/13 03:38:52;;;;;;;0.60;0.30;;;18.40;81.20;;;;;;6198226;23;20005;-83
2022/08/13 03:41:17;;;;;;;0.73;0.30;;;18.30;81.20;;;;;;6198241;23;20062;-83
2022/08/13 03:43:47;;;;;;;0.57;0.20;;;18.30;81.20;;;;;;6199667;23;20566;-83
2022/08/13 03:46:15;;;;;;;0.50;0.38;;;18.30;81.50;;;;;;6198399;23;20001;-83
2022/08/13 03:48:41;;;;;;;1.55;0.30;;;18.20;81.30;;;;;;6198150;23;20382;-84
2022/08/13 03:51:07;;;;;;;0.70;0.30;;;18.30;81.40;;;;;;6199979;23;20028;-84
2022/08/13 03:53:34;;;;;;;0.52;0.30;;;18.30;81.80;;;;;;6222914;23;20060;-85
2022/08/13 03:56:00;;;;;;;1.58;0.50;;;18.20;81.80;;;;;;6194029;23;20005;-84
2022/08/13 03:58:26;;;;;;;0.50;0.30;;;18.20;81.80;;;;;;6196061;23;20004;-85
2022/08/13 04:00:53;;;;;;;1.10;0.40;;;18.20;82.10;;;;;;6196944;23;19997;-85
2022/08/13 04:03:22;;;;;;;1.92;0.40;;;18.10;82.40;;;;;;6194647;23;20012;-83
2022/08/13 04:05:52;;;;;;;0.90;0.50;;;18.10;82.70;;;;;;6195433;23;20013;-85
2022/08/13 04:08:20;;;;;;;1.27;0.40;;;18.10;82.90;;;;;;6194953;23;20016;-84
2022/08/13 04:10:46;;;;;;;1.00;0.40;;;18.00;82.80;;;;;;6196508;23;20237;-84
2022/08/13 04:13:15;;;;;;;1.25;0.70;;;18.00;83.50;;;;;;6198058;23;20032;-85
2022/08/13 04:15:43;;;;;;;0.95;0.40;;;18.00;83.20;;;;;;6195317;23;20025;-84
2022/08/13 04:18:12;;;;;;;1.10;0.30;;;17.90;83.20;;;;;;6195872;23;20012;-84
2022/08/13 04:20:50;;;;;;;1.02;0.40;;;17.90;83.30;;;;;;6193483;23;20028;-85
2022/08/13 04:23:17;;;;;;;1.02;0.40;;;17.90;83.30;;;;;;6195862;23;20359;-85
2022/08/13 04:25:44;;;;;;;0.95;0.40;;;18.00;83.50;;;;;;6196451;23;20028;-85
2022/08/13 04:28:15;;;;;;;1.42;0.50;;;17.90;83.40;;;;;;6194280;23;20009;-85
2022/08/13 04:30:41;;;;;;;0.80;0.32;;;17.90;83.20;;;;;;6193302;23;20012;-85
2022/08/13 04:33:16;;;;;;;1.80;0.40;;;17.80;83.20;;;;;;6193224;23;20276;-85
2022/08/13 04:35:44;;;;;;;1.55;0.50;;;17.90;83.90;;;;;;6191707;23;20012;-85
2022/08/13 04:38:12;;;;;;;1.15;0.45;;;17.90;84.10;;;;;;6191569;23;20011;-84
2022/08/13 04:40:46;;;;;;;1.52;0.40;;;17.80;84.10;;;;;;6215135;23;20027;-85
2022/08/13 04:43:13;;;;;;;0.82;0.40;;;17.80;84.20;;;;;;6190073;23;20033;-86
2022/08/13 04:45:40;;;;;;;1.23;0.45;;;17.90;84.40;;;;;;6190318;23;20080;-85
2022/08/13 04:48:09;;;;;;;0.70;0.40;;;17.80;83.80;;;;;;6188504;23;20456;-85
2022/08/13 04:50:36;;;;;;;0.60;0.35;;;17.90;83.80;;;;;;6188354;23;20012;-84
2022/08/13 04:53:04;;;;;;;0.95;0.40;;;17.90;83.40;;;;;;6189753;23;20455;-86
2022/08/13 04:55:31;;;;;;;1.02;0.40;;;17.90;84.00;;;;;;6186867;23;20511;-85
2022/08/13 04:57:57;;;;;;;0.85;0.30;;;17.90;84.40;;;;;;6189396;23;20009;-85
2022/08/13 05:00:24;;;;;;;0.68;0.38;;;17.90;84.40;;;;;;6188864;23;20001;-85
2022/08/13 05:02:52;;;;;;;0.85;0.45;;;17.90;84.60;;;;;;6189632;23;20005;-86
2022/08/13 05:05:21;;;;;;;1.08;0.50;;;18.00;84.60;;;;;;6187852;23;20484;-85
2022/08/13 05:07:49;;;;;;;1.08;0.40;;;18.00;84.20;;;;;;6187708;23;20005;-84
2022/08/13 05:10:15;;;;;;;0.80;0.43;;;18.10;83.70;;;;;;6186822;23;20008;-83
2022/08/13 05:12:42;;;;;;;1.20;0.40;;;18.10;83.90;;;;;;6190062;23;20068;-84
2022/08/13 05:15:08;;;;;;;0.82;0.35;;;18.20;83.50;;;;;;6187706;23;20024;-84
2022/08/13 05:17:34;;;;;;;1.00;0.43;;;18.20;82.90;;;;;;6189279;23;20344;-84
2022/08/13 05:20:00;;;;;;;0.60;0.40;;;18.30;82.50;;;;;;6185579;23;20419;-84
2022/08/13 05:22:29;;;;;;;1.20;0.40;;;18.20;82.50;;;;;;6190876;23;20447;-84
2022/08/13 05:24:56;;;;;;;0.90;0.38;;;18.30;82.20;;;;;;6189921;23;20007;-84
2022/08/13 05:27:21;;;;;;;1.00;0.50;;;18.40;82.10;;;;;;6186761;23;20005;-84
2022/08/13 05:29:47;;;;;;;1.40;0.50;;;18.40;82.10;;;;;;6187857;23;20028;-85
2022/08/13 05:32:13;;;;;;;0.47;0.30;;;18.50;82.20;;;;;;6187683;23;20036;-84
2022/08/13 05:34:39;;;;;;;1.05;0.50;;;18.60;82.00;;;;;;6184981;23;20028;-84
2022/08/13 05:37:06;;;;;;;0.93;0.43;;;18.70;81.50;;;;;;6186065;23;20028;-85
2022/08/13 05:39:33;;;;;;;1.45;0.50;;;18.80;81.60;;;;;;6189362;23;20428;-84
2022/08/13 05:41:59;;;;;;;1.52;0.43;;;18.90;81.80;;;;;;6189520;23;20030;-84
2022/08/13 05:44:25;;;;;;;0.90;0.43;;;19.00;81.00;;;;;;6189476;23;20001;-84
2022/08/13 05:46:51;;;;;;;0.93;0.32;;;19.10;80.60;;;;;;6190583;23;20060;-84
2022/08/13 05:49:17;;;;;;;1.10;0.90;;;19.20;80.30;;;;;;6189350;23;20028;-84
2022/08/13 05:54:12;;;;;;;1.05;0.38;;;19.30;79.70;;;;;;6182496;23;20017;-84
2022/08/13 05:56:38;;;;;;;1.52;0.50;;;19.30;79.30;;;;;;6185525;23;20012;-84
2022/08/13 06:03:22;;;;;;;1.23;0.40;;;19.40;79.40;;;;;;6187648;23;20001;-83
2022/08/13 06:04:41;;;;;;;0.98;0.40;;;19.60;79.20;;;;;;6190670;23;20062;-84
2022/08/13 06:07:18;;;;;;;1.33;0.60;;;19.70;79.10;;;;;;6163120;23;20012;-84
2022/08/13 06:09:44;;;;;;;0.73;0.40;;;19.80;79.10;;;;;;6189130;23;20246;-84
2022/08/13 06:12:11;;;;;;;0.80;0.40;;;19.80;78.70;;;;;;6188653;23;20052;-83
2022/08/13 06:14:37;;;;;;;1.08;0.40;;;19.90;78.80;;;;;;6161597;23;20008;-84
2022/08/13 06:17:03;;;;;;;1.30;0.50;;;19.80;79.10;;;;;;6161991;23;20329;-83
2022/08/13 06:19:32;;;;;;;1.83;0.50;;;19.80;78.90;;;;;;6185227;23;20005;-83
2022/08/13 06:22:02;;;;;;;0.93;0.43;;;19.90;78.60;;;;;;6159876;23;20486;-83
2022/08/13 06:24:29;;;;;;;0.98;0.50;;;20.00;78.60;;;;;;6161021;23;20081;-83
2022/08/13 06:27:01;;;;;;;1.20;0.50;;;20.00;78.30;;;;;;6186965;23;19997;-83
2022/08/13 06:29:29;;;;;;;1.90;0.50;;;20.10;78.20;;;;;;6186365;23;20012;-83
2022/08/13 06:31:56;;;;;;;1.58;0.40;;;20.20;78.20;;;;;;6185264;23;20530;-83
2022/08/13 06:34:22;;;;;;;1.35;0.50;;;20.30;78.20;;;;;;6187403;23;20029;-83
2022/08/13 06:36:48;;;;;;;1.23;0.50;;;20.30;77.80;;;;;;6185553;23;20005;-84
2022/08/13 06:39:16;;;;;;;0.70;0.40;;;20.30;78.30;;;;;;6184013;23;20020;-83
2022/08/13 06:41:42;;;;;;;1.88;0.40;;;20.40;77.50;;;;;;6185322;23;19998;-83
2022/08/13 06:44:09;;;;;;;1.55;0.55;;;20.50;77.30;;;;;;6185442;23;20096;-83
2022/08/13 06:46:34;;;;;;;1.17;0.55;;;20.60;77.30;;;;;;6184930;23;20016;-83
2022/08/13 06:49:02;;;;;;;2.90;0.43;;;20.70;76.80;;;;;;6183521;23;20009;-83
2022/08/13 06:51:28;;;;;;;0.77;0.38;;;20.70;76.50;;;;;;6185441;23;20001;-85
2022/08/13 06:53:55;;;;;;;1.00;0.38;;;20.90;76.60;;;;;;6186751;23;20063;-83
2022/08/13 06:56:23;;;;;;;2.15;0.50;;;20.90;76.10;;;;;;6186758;23;20036;-83
2022/08/13 06:58:51;;;;;;;0.70;0.40;;;20.80;76.10;;;;;;6160131;23;20099;-83
2022/08/13 07:01:21;;;;;;;1.25;0.50;;;20.90;76.00;;;;;;6159108;23;20479;-83
2022/08/13 07:03:48;;;;;;;0.98;0.40;;;20.80;76.00;;;;;;6158100;23;20527;-83
2022/08/13 07:06:25;;;;;;;1.77;0.55;;;20.90;76.00;;;;;;6188946;23;20001;-82
2022/08/13 07:08:56;;;;;;;0.75;0.40;;;21.00;76.40;;;;;;6158115;23;20008;-82
2022/08/13 07:11:23;;;;;;;0.80;0.40;;;21.10;75.50;;;;;;6158716;23;20028;-84
2022/08/13 07:13:54;;;;;;;0.80;0.40;;;21.30;75.60;;;;;;6184531;23;20005;-82
2022/08/13 07:16:22;;;;;;;0.80;0.45;;;21.20;75.40;;;;;;6157778;23;20021;-82
2022/08/13 07:18:50;;;;;;;0.80;0.40;;;21.20;75.50;;;;;;6183938;23;20001;-83
2022/08/13 07:21:19;;;;;;;1.20;0.57;;;21.20;75.30;;;;;;6154564;23;20015;-83
2022/08/13 07:23:46;;;;;;;1.15;0.40;;;21.30;75.50;;;;;;6185441;23;20085;-82
2022/08/13 07:26:13;;;;;;;0.80;0.35;;;21.40;75.10;;;;;;6185043;23;20479;-83
2022/08/13 07:28:40;;;;;;;0.95;0.50;;;21.50;74.70;;;;;;6158812;23;20052;-82
2022/08/13 07:31:08;;;;;;;1.08;0.50;;;21.50;74.70;;;;;;6184839;23;20444;-84
2022/08/13 07:33:35;;;;;;;1.05;0.40;;;21.60;75.00;;;;;;6187110;23;20001;-83
2022/08/13 07:36:06;;;;;;;1.70;0.68;;;21.60;74.30;;;;;;6186271;23;20001;-83
2022/08/13 07:38:32;;;;;;;1.40;0.50;;;21.70;74.40;;;;;;6185767;23;20001;-83
2022/08/13 07:41:01;;;;;;;1.10;0.50;;;21.90;73.50;;;;;;6158813;23;20039;-83
2022/08/13 07:43:36;;;;;;;0.75;0.40;;;22.10;73.10;;;;;;6158779;23;20000;-83
2022/08/13 07:46:09;;;;;;;0.73;0.32;;;22.00;73.00;;;;;;6159337;23;20009;-83
2022/08/13 07:48:37;;;;;;;0.40;0.38;;;21.90;73.50;;;;;;6186356;23;20005;-82
2022/08/13 07:51:05;;;;;;;1.02;0.47;;;21.90;73.60;;;;;;6185833;23;20008;-83
2022/08/13 07:53:35;;;;;;;0.95;0.50;;;21.90;73.80;;;;;;6185809;23;20009;-82
2022/08/13 07:56:03;;;;;;;1.40;0.57;;;22.10;74.00;;;;;;6158820;23;20009;-82
2022/08/13 07:58:30;;;;;;;0.95;0.60;;;22.20;73.10;;;;;;6159571;23;19997;-83
2022/08/13 08:00:59;;;;;;;1.52;0.52;;;22.20;73.30;;;;;;6159756;23;20009;-82
2022/08/13 08:03:41;;;;;;;1.42;0.55;;;22.30;73.30;;;;;;6180803;23;20084;-82
2022/08/13 08:06:12;;;;;;;1.45;0.50;;;22.40;73.00;;;;;;6158950;23;20035;-82
2022/08/13 08:08:40;;;;;;;1.83;0.60;;;22.60;72.40;;;;;;6161402;23;20095;-83
2022/08/13 08:11:08;;;;;;;0.65;0.45;;;22.80;72.20;;;;;;6160413;23;20380;-83
2022/08/13 08:13:34;;;;;;;1.35;0.52;;;23.00;71.80;;;;;;6186012;23;20005;-84
2022/08/13 08:16:03;;;;;;;0.95;0.43;;;23.10;71.60;;;;;;6187492;23;20028;-83
2022/08/13 08:18:30;;;;;;;1.15;0.57;;;23.10;71.60;;;;;;6187789;23;20001;-83
2022/08/13 08:21:08;;;;;;;1.77;0.55;;;23.30;71.70;;;;;;6181503;23;20083;-83
2022/08/13 08:23:35;;;;;;;1.15;0.35;;;23.40;71.50;;;;;;6159997;23;20001;-82
2022/08/13 08:26:07;;;;;;;0.68;0.40;;;23.50;70.60;;;;;;6160273;23;20375;-83
2022/08/13 08:28:35;;;;;;;1.45;0.50;;;23.60;71.30;;;;;;6187494;23;20002;-83
2022/08/13 08:31:06;;;;;;;0.75;0.40;;;23.80;70.10;;;;;;6159906;23;20005;-82
2022/08/13 08:33:34;;;;;;;2.10;0.60;;;23.80;70.20;;;;;;6188773;23;20001;-83
2022/08/13 08:36:02;;;;;;;1.13;0.40;;;24.00;70.30;;;;;;6192244;23;20057;-83
2022/08/13 08:44:00;;;;;;;1.52;0.52;;;24.50;69.30;;;;;;6187953;23;20040;-83
2022/08/13 08:46:34;;;;;;;0.73;0.40;;;24.70;68.50;;;;;;6187804;23;20029;-84
2022/08/13 08:49:04;;;;;;;1.17;0.50;;;24.70;68.60;;;;;;6161818;23;20060;-82
2022/08/13 08:51:32;;;;;;;1.83;0.70;;;24.90;68.50;;;;;;6186202;23;20001;-82
2022/08/13 08:54:00;;;;;;;0.80;0.40;;;24.50;68.20;;;;;;6157789;23;20021;-82
2022/08/13 08:56:26;;;;;;;1.38;0.50;;;24.60;68.70;;;;;;6187659;23;20008;-84
2022/08/13 08:58:55;;;;;;;1.30;0.40;;;24.30;68.70;;;;;;6189400;23;20013;-83
2022/08/13 09:01:24;;;;;;;1.55;0.70;;;24.30;69.50;;;;;;6181514;23;20210;-82
2022/08/13 09:03:56;;;;;;;2.30;0.40;;;24.20;69.30;;;;;;6187554;23;20088;-83
2022/08/13 09:06:23;;;;;;;1.13;0.40;;;24.40;68.60;;;;;;6162400;23;20440;-83
2022/08/13 09:08:52;;;;;;;1.00;0.40;;;24.50;69.00;;;;;;6185682;23;20076;-82
2022/08/13 09:11:19;;;;;;;1.10;0.32;;;24.70;68.60;;;;;;6185085;23;20032;-83
2022/08/13 09:13:49;;;;;;;1.23;0.45;;;24.70;68.90;;;;;;6159036;23;20005;-83
2022/08/13 09:16:16;;;;;;;0.88;0.30;;;25.10;67.70;;;;;;6159777;23;20019;-83
2022/08/13 09:18:43;;;;;;;0.80;0.40;;;25.10;65.60;;;;;;6169446;23;20012;-83
2022/08/13 09:21:09;;;;;;;0.70;0.40;;;25.10;65.60;;;;;;6193359;23;20027;-82
2022/08/13 09:23:34;;;;;;;0.82;0.38;;;25.10;65.90;;;;;;6192518;23;20001;-83
2022/08/13 09:26:04;;;;;;;0.82;0.40;;;25.30;66.40;;;;;;6185895;23;20051;-82
2022/08/13 09:28:31;;;;;;;1.15;0.47;;;25.40;66.10;;;;;;6159767;23;20504;-82
2022/08/13 09:30:58;;;;;;;2.75;0.40;;;25.30;65.70;;;;;;6184729;23;20009;-82
2022/08/13 09:33:28;;;;;;;0.55;0.38;;;25.10;66.10;;;;;;6159054;23;20036;-82
2022/08/13 09:35:55;;;;;;;0.95;0.50;;;25.40;66.10;;;;;;6183964;23;20021;-82
2022/08/13 09:38:21;;;;;;;0.93;0.32;;;25.80;65.90;;;;;;6185090;23;20001;-83
2022/08/13 09:41:05;;;;;;;1.70;0.65;;;26.40;65.30;;;;;;6185453;23;20011;-84
2022/08/13 09:43:39;;;;;;;0.88;0.50;;;26.80;63.90;;;;;;6187280;23;20045;-84
2022/08/13 09:46:07;;;;;;;0.70;0.50;;;26.70;63.40;;;;;;6186322;23;20016;-84
2022/08/13 09:48:34;;;;;;;1.20;0.40;;;26.90;62.90;;;;;;6185348;23;20059;-84
2022/08/13 09:51:03;;;;;;;0.70;0.40;;;26.50;63.70;;;;;;6188888;23;20012;-83
2022/08/13 09:53:29;;;;;;;1.00;0.30;;;26.60;64.30;;;;;;6184541;23;20017;-84
2022/08/13 09:55:56;;;;;;;1.08;0.40;;;26.70;63.10;;;;;;6158245;23;20029;-83
2022/08/13 09:58:23;;;;;;;0.80;0.40;;;26.90;62.90;;;;;;6186757;23;20005;-84
2022/08/13 10:00:50;;;;;;;1.25;0.45;;;26.70;63.40;;;;;;6185806;23;20025;-84
2022/08/13 10:03:17;;;;;;;1.08;0.30;;;26.30;63.10;;;;;;6184902;23;19997;-83
2022/08/13 10:05:43;;;;;;;0.50;0.30;;;26.00;63.20;;;;;;6158696;23;20012;-84
2022/08/13 10:08:17;;;;;;;1.92;0.40;;;26.00;63.50;;;;;;6182977;23;20116;-84
2022/08/13 10:10:45;;;;;;;0.40;0.20;;;26.10;63.90;;;;;;6159804;23;20490;-84
2022/08/13 10:13:14;;;;;;;0.63;0.30;;;26.20;64.10;;;;;;6161095;23;20029;-84
2022/08/13 10:15:41;;;;;;;1.67;0.40;;;26.20;63.30;;;;;;6184728;23;20023;-84
2022/08/13 10:18:08;;;;;;;0.70;0.38;;;26.20;63.50;;;;;;6185479;23;20023;-84
2022/08/13 10:20:40;;;;;;;0.73;0.40;;;26.00;63.20;;;;;;6178598;23;20029;-83
2022/08/13 10:23:11;;;;;;;1.38;0.45;;;26.30;63.50;;;;;;6182407;23;20561;-84
